Time;durP1;ratioP1;P1;durP2;ratioP2;P2;SDS_P1;SDS_P2;PMS_P1;PMS_P2;Temp;Humidity;BMP_temperature;BMP_pressure;BME280_temperature;BME280_humidity;BME280_pressure;Samples;Min_cycle;Max_cycle;Signal;HPM_P1;HPM_P2
2024/03/01 00:02:12;;;;;;;148.30;71.20;;;;;;;;;;109498;1252;58870;-79
2024/03/01 00:04:39;;;;;;;142.10;66.60;;;;;;;;;;109388;1251;59151;-79
2024/03/01 00:07:05;;;;;;;141.90;68.90;;;;;;;;;;106516;1253;61153;-84
2024/03/01 00:09:32;;;;;;;137.50;61.90;;;;;;;;;;107148;1256;61420;-83
2024/03/01 00:11:59;;;;;;;141.70;68.20;;;;;;;;;;107154;1256;61198;-79
2024/03/01 00:14:26;;;;;;;128.40;62.40;;;;;;;;;;106568;1256;61200;-83
2024/03/01 00:16:52;;;;;;;126.30;60.70;;;;;;;;;;109503;1253;60646;-79
2024/03/01 00:19:19;;;;;;;113.50;57.60;;;;;;;;;;109568;1253;58887;-79
2024/03/01 00:21:47;;;;;;;138.10;63.20;;;;;;;;;;109510;1254;59001;-84
2024/03/01 00:24:13;;;;;;;129.10;58.00;;;;;;;;;;109536;1251;61925;-84
2024/03/01 00:26:46;;;;;;;115.90;56.20;;;;;;;;;;109589;1252;58957;-80
2024/03/01 00:29:12;;;;;;;117.00;57.80;;;;;;;;;;109475;1251;59808;-80
2024/03/01 00:31:38;;;;;;;120.20;58.60;;;;;;;;;;109544;1254;58866;-82
2024/03/01 00:34:05;;;;;;;119.80;56.90;;;;;;;;;;109507;1251;58947;-84
2024/03/01 00:36:31;;;;;;;121.80;57.50;;;;;;;;;;109562;1254;58887;-84
2024/03/01 00:38:57;;;;;;;135.70;59.00;;;;;;;;;;109554;1254;59156;-84
2024/03/01 00:41:24;;;;;;;118.70;55.60;;;;;;;;;;109537;1251;59254;-84
2024/03/01 00:43:50;;;;;;;160.40;64.60;;;;;;;;;;109531;1251;58945;-84
2024/03/01 00:46:16;;;;;;;129.70;58.20;;;;;;;;;;108177;1251;61211;-79
2024/03/01 00:48:43;;;;;;;135.90;60.90;;;;;;;;;;107137;1254;61086;-83
2024/03/01 00:51:09;;;;;;;125.40;59.30;;;;;;;;;;107093;1252;61722;-83
2024/03/01 00:53:36;;;;;;;108.70;54.10;;;;;;;;;;107160;1256;61208;-79
2024/03/01 00:56:02;;;;;;;106.50;55.70;;;;;;;;;;106531;1252;61333;-79
2024/03/01 00:58:28;;;;;;;113.30;56.20;;;;;;;;;;106551;1256;61180;-84
2024/03/01 01:00:55;;;;;;;115.90;56.00;;;;;;;;;;107122;1256;59169;-83
2024/03/01 01:03:21;;;;;;;110.70;54.90;;;;;;;;;;107135;1252;61227;-83
2024/03/01 01:05:48;;;;;;;110.50;55.70;;;;;;;;;;107132;1256;61340;-79
2024/03/01 01:08:14;;;;;;;111.30;54.40;;;;;;;;;;107041;1256;59208;-84
2024/03/01 01:10:40;;;;;;;117.70;54.90;;;;;;;;;;107119;1256;61136;-83
2024/03/01 01:13:07;;;;;;;104.80;53.40;;;;;;;;;;107179;1256;62144;-83
2024/03/01 01:15:34;;;;;;;119.20;57.20;;;;;;;;;;106406;1256;61308;-79
2024/03/01 01:18:00;;;;;;;114.10;53.20;;;;;;;;;;107057;1258;61351;-85
2024/03/01 01:20:27;;;;;;;117.60;59.70;;;;;;;;;;107230;1257;61384;-84
2024/03/01 01:22:53;;;;;;;119.60;54.40;;;;;;;;;;107256;1257;61276;-79
2024/03/01 01:25:19;;;;;;;110.60;52.80;;;;;;;;;;107151;1255;61151;-80
2024/03/01 01:27:46;;;;;;;110.90;55.30;;;;;;;;;;107005;1257;61147;-85
2024/03/01 01:30:12;;;;;;;106.50;52.20;;;;;;;;;;107138;1251;61371;-80
2024/03/01 01:32:39;;;;;;;111.20;54.90;;;;;;;;;;107895;1251;61282;-80
2024/03/01 01:35:05;;;;;;;112.40;56.30;;;;;;;;;;107532;1256;61253;-85
2024/03/01 01:37:31;;;;;;;112.10;53.70;;;;;;;;;;107127;1251;61265;-80
2024/03/01 01:39:58;;;;;;;111.20;54.30;;;;;;;;;;107085;1251;61523;-84
2024/03/01 01:42:25;;;;;;;115.00;56.40;;;;;;;;;;107168;1251;61254;-85
2024/03/01 01:44:51;;;;;;;107.20;54.90;;;;;;;;;;109567;1251;58804;-85
2024/03/01 01:47:17;;;;;;;104.80;52.70;;;;;;;;;;109496;1251;59278;-85
2024/03/01 01:49:44;;;;;;;99.60;47.70;;;;;;;;;;108609;1251;61410;-80
2024/03/01 01:52:10;;;;;;;98.80;49.10;;;;;;;;;;106940;1251;61334;-80
2024/03/01 01:54:37;;;;;;;107.20;51.10;;;;;;;;;;107068;1256;61333;-84
2024/03/01 01:57:03;;;;;;;98.30;49.70;;;;;;;;;;107028;1251;61209;-84
2024/03/01 01:59:29;;;;;;;100.10;49.40;;;;;;;;;;107037;1251;61368;-84
2024/03/01 02:01:56;;;;;;;94.30;45.70;;;;;;;;;;107081;1251;61218;-80
2024/03/01 02:04:22;;;;;;;103.50;49.90;;;;;;;;;;107089;1257;61214;-84
2024/03/01 02:06:49;;;;;;;93.80;48.50;;;;;;;;;;107034;1251;61285;-80
2024/03/01 02:09:18;;;;;;;101.30;50.50;;;;;;;;;;107108;1252;61430;-80
2024/03/01 02:11:45;;;;;;;106.70;50.80;;;;;;;;;;107130;1257;61189;-85
2024/03/01 02:14:11;;;;;;;114.40;51.30;;;;;;;;;;107425;1256;61759;-85
2024/03/01 02:16:37;;;;;;;111.10;53.60;;;;;;;;;;109582;1251;58831;-80
2024/03/01 02:19:05;;;;;;;105.60;53.40;;;;;;;;;;109527;1256;58882;-85
2024/03/01 02:21:35;;;;;;;107.20;48.80;;;;;;;;;;108010;1256;61314;-85
2024/03/01 02:24:03;;;;;;;96.60;48.90;;;;;;;;;;107092;1256;61142;-85
2024/03/01 02:26:30;;;;;;;97.50;49.00;;;;;;;;;;107056;1257;63278;-85
2024/03/01 02:28:57;;;;;;;106.80;51.20;;;;;;;;;;107144;1251;61222;-85
2024/03/01 02:31:23;;;;;;;102.10;50.60;;;;;;;;;;106992;1251;61800;-80
2024/03/01 02:33:50;;;;;;;101.00;49.90;;;;;;;;;;107101;1251;62350;-81
2024/03/01 02:36:17;;;;;;;95.90;49.90;;;;;;;;;;107019;1257;61304;-80
2024/03/01 02:38:43;;;;;;;95.10;47.70;;;;;;;;;;107151;1251;62467;-84
2024/03/01 02:41:09;;;;;;;100.30;45.50;;;;;;;;;;107135;1252;61337;-79
2024/03/01 02:43:36;;;;;;;77.50;43.30;;;;;;;;;;106988;1251;61331;-79
2024/03/01 02:46:02;;;;;;;89.30;46.10;;;;;;;;;;107016;1255;61480;-80
2024/03/01 02:48:28;;;;;;;89.80;45.60;;;;;;;;;;107084;1251;61218;-84
2024/03/01 02:50:55;;;;;;;92.90;45.20;;;;;;;;;;107116;1251;61352;-85
2024/03/01 02:53:22;;;;;;;90.90;43.90;;;;;;;;;;107055;1257;61263;-85
2024/03/01 02:55:48;;;;;;;84.60;43.50;;;;;;;;;;107100;1256;61396;-80
2024/03/01 02:58:15;;;;;;;88.10;41.00;;;;;;;;;;107212;1257;61242;-78
2024/03/01 03:00:41;;;;;;;60.80;31.60;;;;;;;;;;106572;1254;61346;-73
2024/03/01 03:03:07;;;;;;;81.00;40.90;;;;;;;;;;106631;1251;61342;-73
2024/03/01 03:05:34;;;;;;;82.00;40.60;;;;;;;;;;106538;1257;61205;-73
2024/03/01 03:08:00;;;;;;;83.30;41.50;;;;;;;;;;106570;1257;61362;-73
2024/03/01 03:10:27;;;;;;;88.30;42.10;;;;;;;;;;106572;1257;62266;-73
2024/03/01 03:12:53;;;;;;;68.90;38.40;;;;;;;;;;106570;1251;61221;-72
2024/03/01 03:15:20;;;;;;;75.20;39.70;;;;;;;;;;106597;1251;61074;-73
2024/03/01 03:17:46;;;;;;;80.70;39.20;;;;;;;;;;106569;1257;61346;-72
2024/03/01 03:20:15;;;;;;;73.50;37.80;;;;;;;;;;106602;1257;61301;-72
2024/03/01 03:22:44;;;;;;;69.90;38.60;;;;;;;;;;106608;1256;61305;-72
2024/03/01 03:25:14;;;;;;;76.10;39.50;;;;;;;;;;106612;1251;61159;-73
2024/03/01 03:27:40;;;;;;;73.20;37.00;;;;;;;;;;106653;1251;63102;-72
2024/03/01 03:30:07;;;;;;;79.50;40.00;;;;;;;;;;106582;1256;61218;-79
2024/03/01 03:32:33;;;;;;;79.50;41.20;;;;;;;;;;106596;1251;61211;-73
2024/03/01 03:35:00;;;;;;;86.10;37.90;;;;;;;;;;106604;1257;61132;-79
2024/03/01 03:37:26;;;;;;;84.10;38.90;;;;;;;;;;106605;1251;62309;-73
2024/03/01 03:39:53;;;;;;;85.50;42.80;;;;;;;;;;106616;1251;61275;-75
2024/03/01 03:42:19;;;;;;;86.10;41.90;;;;;;;;;;106587;1251;61358;-73
2024/03/01 03:44:46;;;;;;;86.90;41.80;;;;;;;;;;106624;1251;61097;-76
2024/03/01 03:47:12;;;;;;;98.30;44.60;;;;;;;;;;106618;1257;61208;-84
2024/03/01 03:49:38;;;;;;;86.70;42.00;;;;;;;;;;106617;1251;61250;-75
2024/03/01 03:52:05;;;;;;;88.70;41.80;;;;;;;;;;106635;1257;61208;-83
2024/03/01 03:54:32;;;;;;;87.60;42.10;;;;;;;;;;106627;1251;61321;-79
2024/03/01 03:56:59;;;;;;;89.40;39.90;;;;;;;;;;106517;1251;61342;-83
2024/03/01 03:59:25;;;;;;;88.30;40.70;;;;;;;;;;106512;1254;61291;-75
2024/03/01 04:01:51;;;;;;;79.70;39.10;;;;;;;;;;106600;1251;61356;-81
2024/03/01 04:04:18;;;;;;;76.70;38.60;;;;;;;;;;107409;1251;59137;-75
2024/03/01 04:06:44;;;;;;;69.40;36.90;;;;;;;;;;106625;1257;61218;-73
2024/03/01 04:09:12;;;;;;;76.50;38.50;;;;;;;;;;106589;1257;61305;-76
2024/03/01 04:11:40;;;;;;;78.40;36.70;;;;;;;;;;106646;1251;61126;-81
2024/03/01 04:14:10;;;;;;;87.40;36.20;;;;;;;;;;106667;1251;61820;-78
2024/03/01 04:16:37;;;;;;;81.40;36.20;;;;;;;;;;106584;1251;61658;-77
2024/03/01 04:19:03;;;;;;;89.40;38.30;;;;;;;;;;106660;1251;59413;-77
2024/03/01 04:21:30;;;;;;;78.10;37.90;;;;;;;;;;106579;1255;61317;-78
2024/03/01 04:23:57;;;;;;;76.40;38.60;;;;;;;;;;107368;1251;59176;-83
2024/03/01 04:26:23;;;;;;;66.70;33.50;;;;;;;;;;106576;1251;61132;-74
2024/03/01 04:28:49;;;;;;;59.10;31.70;;;;;;;;;;106623;1251;62198;-74
2024/03/01 04:31:16;;;;;;;64.50;30.80;;;;;;;;;;106573;1251;61364;-73
2024/03/01 04:33:42;;;;;;;62.40;32.70;;;;;;;;;;106467;1251;61253;-74
2024/03/01 04:36:09;;;;;;;62.40;34.50;;;;;;;;;;106503;1254;61131;-83
2024/03/01 04:38:36;;;;;;;66.00;35.90;;;;;;;;;;106585;1251;63094;-86
2024/03/01 04:41:03;;;;;;;65.00;35.70;;;;;;;;;;106634;1255;63354;-79
2024/03/01 04:43:30;;;;;;;64.60;34.80;;;;;;;;;;106617;1255;61282;-83
2024/03/01 04:45:56;;;;;;;66.60;34.70;;;;;;;;;;107375;1255;61017;-74
2024/03/01 04:48:23;;;;;;;68.00;34.90;;;;;;;;;;106606;1251;61356;-74
2024/03/01 04:50:49;;;;;;;66.50;37.10;;;;;;;;;;106562;1251;61364;-76
2024/03/01 04:53:16;;;;;;;64.50;32.20;;;;;;;;;;107387;1251;61243;-80
2024/03/01 04:55:42;;;;;;;50.40;27.50;;;;;;;;;;106556;1251;61374;-74
2024/03/01 04:58:09;;;;;;;54.70;30.10;;;;;;;;;;106577;1257;61384;-75
2024/03/01 05:00:35;;;;;;;54.00;29.50;;;;;;;;;;106589;1251;61240;-83
2024/03/01 05:03:06;;;;;;;66.30;33.40;;;;;;;;;;106622;1251;61269;-76
2024/03/01 05:05:33;;;;;;;49.40;28.80;;;;;;;;;;106601;1251;62895;-72
2024/03/01 05:07:59;;;;;;;60.00;32.10;;;;;;;;;;107425;1251;61171;-72
2024/03/01 05:10:25;;;;;;;64.50;33.60;;;;;;;;;;109475;1251;59164;-72
2024/03/01 05:12:52;;;;;;;55.30;29.30;;;;;;;;;;109485;1251;59005;-72
2024/03/01 05:15:18;;;;;;;54.10;30.00;;;;;;;;;;109449;1251;58967;-78
2024/03/01 05:17:45;;;;;;;57.00;30.70;;;;;;;;;;106585;1251;61250;-75
2024/03/01 05:20:12;;;;;;;56.90;31.50;;;;;;;;;;106529;1251;62004;-75
2024/03/01 05:22:39;;;;;;;63.20;32.30;;;;;;;;;;106951;1251;61221;-80
2024/03/01 05:25:14;;;;;;;56.30;32.80;;;;;;;;;;109512;1251;59713;-74
2024/03/01 05:27:44;;;;;;;55.70;32.00;;;;;;;;;;109530;1251;59131;-78
2024/03/01 05:30:17;;;;;;;58.20;32.40;;;;;;;;;;108310;1251;61199;-83
2024/03/01 05:32:44;;;;;;;54.70;29.90;;;;;;;;;;109530;1251;59159;-84
2024/03/01 05:35:14;;;;;;;58.90;31.60;;;;;;;;;;109585;1251;59076;-81
2024/03/01 05:37:41;;;;;;;52.70;29.00;;;;;;;;;;109475;1251;59155;-82
2024/03/01 05:40:10;;;;;;;67.00;30.60;;;;;;;;;;109562;1251;59097;-83
2024/03/01 05:42:38;;;;;;;56.00;32.60;;;;;;;;;;109553;1251;62930;-83
2024/03/01 05:45:07;;;;;;;57.50;31.60;;;;;;;;;;109389;1251;217202;-82
2024/03/01 05:47:37;;;;;;;56.60;31.30;;;;;;;;;;109524;1251;59701;-82
2024/03/01 05:50:04;;;;;;;77.50;32.90;;;;;;;;;;109517;1251;58941;-82
2024/03/01 05:52:31;;;;;;;64.10;31.20;;;;;;;;;;109453;1251;59045;-83
2024/03/01 05:54:58;;;;;;;59.20;33.50;;;;;;;;;;109558;1251;62396;-83
2024/03/01 05:57:29;;;;;;;63.70;32.30;;;;;;;;;;109501;1251;58973;-84
2024/03/01 05:59:55;;;;;;;60.20;30.50;;;;;;;;;;109503;1251;59101;-83
2024/03/01 06:02:22;;;;;;;63.90;36.40;;;;;;;;;;109384;1251;58896;-83
2024/03/01 06:04:48;;;;;;;67.40;34.00;;;;;;;;;;109562;1251;58956;-83
2024/03/01 06:07:18;;;;;;;67.90;37.20;;;;;;;;;;109576;1251;62316;-83
2024/03/01 06:09:44;;;;;;;75.60;38.10;;;;;;;;;;109574;1251;58943;-83
2024/03/01 06:12:11;;;;;;;92.30;42.80;;;;;;;;;;109502;1251;58898;-84
2024/03/01 06:14:37;;;;;;;74.50;40.70;;;;;;;;;;109439;1251;59306;-82
2024/03/01 06:17:04;;;;;;;79.40;40.80;;;;;;;;;;107193;1252;61288;-82
2024/03/01 06:19:31;;;;;;;76.00;36.90;;;;;;;;;;107290;1251;61161;-83
2024/03/01 06:21:57;;;;;;;85.10;45.40;;;;;;;;;;107136;1251;59850;-83
2024/03/01 06:24:24;;;;;;;83.90;45.40;;;;;;;;;;107282;1251;61243;-83
2024/03/01 06:26:50;;;;;;;92.90;48.00;;;;;;;;;;107159;1253;59340;-83
2024/03/01 06:29:17;;;;;;;91.70;47.80;;;;;;;;;;107342;1256;61246;-84
2024/03/01 06:31:43;;;;;;;82.50;43.60;;;;;;;;;;107419;1253;61560;-82
2024/03/01 06:34:10;;;;;;;84.70;45.20;;;;;;;;;;107380;1251;61349;-84
2024/03/01 06:36:36;;;;;;;82.00;43.90;;;;;;;;;;107291;1253;61323;-84
2024/03/01 06:39:03;;;;;;;81.60;44.10;;;;;;;;;;108929;1255;59345;-82
2024/03/01 06:41:29;;;;;;;83.50;43.00;;;;;;;;;;107312;1251;59471;-81
2024/03/01 06:43:56;;;;;;;93.30;46.90;;;;;;;;;;107363;1251;59880;-82
2024/03/01 06:46:23;;;;;;;91.70;46.60;;;;;;;;;;107274;1251;61193;-82
2024/03/01 06:48:50;;;;;;;89.90;46.80;;;;;;;;;;107100;1253;61295;-83
2024/03/01 06:51:16;;;;;;;88.30;45.70;;;;;;;;;;107185;1254;61263;-82
2024/03/01 06:53:43;;;;;;;81.50;45.60;;;;;;;;;;107121;1251;61099;-83
2024/03/01 06:56:09;;;;;;;74.50;42.00;;;;;;;;;;107089;1253;61094;-82
2024/03/01 06:58:36;;;;;;;70.90;40.80;;;;;;;;;;107301;1251;61119;-83
2024/03/01 07:01:05;;;;;;;73.90;41.10;;;;;;;;;;107243;1251;61359;-84
2024/03/01 07:03:31;;;;;;;81.30;46.40;;;;;;;;;;107329;1251;61241;-83
2024/03/01 07:05:58;;;;;;;80.30;44.90;;;;;;;;;;107580;1251;61093;-82
2024/03/01 07:08:24;;;;;;;82.50;44.20;;;;;;;;;;107376;1251;61334;-82
2024/03/01 07:10:52;;;;;;;80.90;46.60;;;;;;;;;;107326;1253;59136;-83
2024/03/01 07:13:19;;;;;;;85.70;45.80;;;;;;;;;;107296;1255;61253;-83
2024/03/01 07:15:45;;;;;;;87.00;43.70;;;;;;;;;;107404;1251;61209;-82
2024/03/01 07:18:12;;;;;;;73.80;41.20;;;;;;;;;;107511;1253;62143;-83
2024/03/01 07:20:38;;;;;;;71.80;40.40;;;;;;;;;;107274;1253;61263;-82
2024/03/01 07:23:04;;;;;;;62.80;39.10;;;;;;;;;;107356;1251;61073;-82
2024/03/01 07:25:32;;;;;;;91.50;49.80;;;;;;;;;;107541;1251;61346;-82
2024/03/01 07:27:59;;;;;;;260.30;147.30;;;;;;;;;;107472;1251;61308;-84
2024/03/01 07:30:25;;;;;;;290.00;175.20;;;;;;;;;;107533;1251;61147;-82
2024/03/01 07:32:53;;;;;;;424.90;260.90;;;;;;;;;;107609;1251;61711;-83
2024/03/01 07:35:19;;;;;;;482.20;306.00;;;;;;;;;;107549;1252;61343;-83
2024/03/01 07:37:46;;;;;;;130.40;81.10;;;;;;;;;;107620;1253;61203;-82
2024/03/01 07:40:12;;;;;;;127.30;73.60;;;;;;;;;;107512;1251;61423;-82
2024/03/01 07:42:39;;;;;;;140.60;86.00;;;;;;;;;;107478;1251;61218;-83
2024/03/01 07:45:05;;;;;;;85.80;53.40;;;;;;;;;;107488;1251;61262;-82
2024/03/01 07:47:33;;;;;;;77.60;43.40;;;;;;;;;;107491;1251;61220;-83
2024/03/01 07:50:00;;;;;;;85.10;50.90;;;;;;;;;;107568;1251;61196;-83
2024/03/01 07:52:29;;;;;;;72.10;41.00;;;;;;;;;;107491;1253;61984;-81
2024/03/01 07:54:56;;;;;;;62.40;35.90;;;;;;;;;;107617;1254;61147;-83
2024/03/01 07:57:22;;;;;;;62.40;38.10;;;;;;;;;;107471;1253;61228;-83
2024/03/01 07:59:49;;;;;;;67.90;46.80;;;;;;;;;;107425;1251;61222;-83
2024/03/01 08:02:16;;;;;;;70.10;44.80;;;;;;;;;;107386;1257;61455;-83
2024/03/01 08:04:42;;;;;;;68.10;39.70;;;;;;;;;;107761;1252;59307;-82
2024/03/01 08:07:09;;;;;;;56.60;35.00;;;;;;;;;;107560;1255;61243;-82
2024/03/01 08:09:40;;;;;;;86.40;51.10;;;;;;;;;;107443;1251;61287;-82
2024/03/01 08:12:11;;;;;;;73.50;43.80;;;;;;;;;;107384;1251;59683;-82
2024/03/01 08:14:38;;;;;;;78.80;47.30;;;;;;;;;;107969;1253;61202;-83
2024/03/01 08:17:04;;;;;;;96.30;57.00;;;;;;;;;;107931;1251;59699;-81
2024/03/01 08:19:32;;;;;;;61.30;40.80;;;;;;;;;;107906;1256;61128;-82
2024/03/01 08:22:09;;;;;;;93.60;60.20;;;;;;;;;;107576;1251;61617;-81
2024/03/01 08:24:46;;;;;;;58.30;36.20;;;;;;;;;;107613;1257;61163;-82
2024/03/01 08:27:16;;;;;;;91.20;58.40;;;;;;;;;;107529;1251;61242;-81
2024/03/01 08:29:42;;;;;;;71.40;46.70;;;;;;;;;;107389;1251;61276;-83
2024/03/01 08:32:28;;;;;;;59.90;38.70;;;;;;;;;;107436;1251;62282;-82
2024/03/01 08:34:55;;;;;;;51.80;35.20;;;;;;;;;;107610;1256;61996;-81
2024/03/01 08:37:22;;;;;;;55.70;33.90;;;;;;;;;;107539;1251;61043;-82
2024/03/01 08:39:49;;;;;;;100.00;39.00;;;;;;;;;;107579;1251;61260;-83
2024/03/01 08:42:15;;;;;;;62.60;36.40;;;;;;;;;;107267;1251;61249;-82
2024/03/01 08:44:53;;;;;;;66.40;42.80;;;;;;;;;;106787;1251;61304;-83
2024/03/01 08:47:23;;;;;;;41.60;28.40;;;;;;;;;;109110;1251;61455;-82
2024/03/01 08:49:51;;;;;;;45.00;28.50;;;;;;;;;;108600;1253;61083;-80
2024/03/01 08:52:39;;;;;;;57.20;31.00;;;;;;;;;;107522;1255;61221;-80
2024/03/01 08:55:08;;;;;;;53.20;35.10;;;;;;;;;;107717;1251;59711;-81
2024/03/01 08:57:36;;;;;;;54.20;34.10;;;;;;;;;;107623;1251;59303;-80
2024/03/01 09:00:18;;;;;;;63.90;36.80;;;;;;;;;;107786;1256;62006;-80
2024/03/01 09:02:48;;;;;;;59.80;38.50;;;;;;;;;;107425;1256;61382;-80
2024/03/01 09:05:15;;;;;;;70.80;39.80;;;;;;;;;;107765;1253;61144;-80
2024/03/01 09:07:42;;;;;;;79.10;48.70;;;;;;;;;;107297;1260;61308;-80
2024/03/01 09:10:29;;;;;;;72.10;45.70;;;;;;;;;;107352;1251;59427;-81
2024/03/01 09:12:55;;;;;;;62.60;43.70;;;;;;;;;;107354;1251;61912;-82
2024/03/01 09:15:23;;;;;;;64.70;44.80;;;;;;;;;;107488;1251;61144;-81
2024/03/01 09:17:51;;;;;;;50.30;32.80;;;;;;;;;;107223;1251;59785;-83
2024/03/01 09:20:29;;;;;;;60.20;37.00;;;;;;;;;;107419;1251;60247;-83
2024/03/01 09:22:56;;;;;;;58.80;33.00;;;;;;;;;;107341;1251;61333;-82
2024/03/01 09:25:41;;;;;;;53.50;33.30;;;;;;;;;;107336;1256;62960;-83
2024/03/01 09:28:08;;;;;;;47.00;30.30;;;;;;;;;;109497;1253;59173;-83
2024/03/01 09:30:35;;;;;;;54.40;36.80;;;;;;;;;;109469;1253;59118;-83
2024/03/01 09:33:01;;;;;;;46.30;30.90;;;;;;;;;;109481;1251;58987;-82
2024/03/01 09:35:27;;;;;;;42.70;27.00;;;;;;;;;;109491;1251;59123;-82
2024/03/01 09:37:54;;;;;;;38.90;26.90;;;;;;;;;;109424;1251;58885;-82
2024/03/01 09:40:39;;;;;;;44.60;24.60;;;;;;;;;;109456;1251;58903;-82
2024/03/01 09:43:17;;;;;;;55.90;32.40;;;;;;;;;;109415;1251;59010;-82
2024/03/01 09:45:51;;;;;;;50.10;25.10;;;;;;;;;;109331;1251;59229;-82
2024/03/01 09:48:31;;;;;;;41.90;28.00;;;;;;;;;;109498;1251;59125;-82
2024/03/01 09:50:57;;;;;;;37.70;30.60;;;;;;;;;;109417;1251;61627;-83
2024/03/01 09:53:24;;;;;;;40.30;27.20;;;;;;;;;;109498;1251;59644;-82
2024/03/01 09:55:55;;;;;;;48.30;32.60;;;;;;;;;;109450;1251;59755;-83
2024/03/01 09:58:21;;;;;;;37.30;22.70;;;;;;;;;;109401;1251;59185;-82
2024/03/01 10:00:51;;;;;;;31.40;19.20;;;;;;;;;;109489;1251;59253;-82
2024/03/01 10:03:25;;;;;;;33.90;18.50;;;;;;;;;;109506;1251;60784;-83
2024/03/01 10:05:52;;;;;;;29.60;18.90;;;;;;;;;;108407;1251;61299;-82
2024/03/01 10:08:18;;;;;;;33.90;20.80;;;;;;;;;;107394;1251;61183;-83
2024/03/01 10:11:03;;;;;;;38.40;22.70;;;;;;;;;;107222;1251;61199;-83
2024/03/01 10:13:35;;;;;;;46.90;23.40;;;;;;;;;;107384;1251;61214;-83
2024/03/01 10:16:20;;;;;;;38.00;23.30;;;;;;;;;;107486;1251;61295;-82
2024/03/01 10:18:49;;;;;;;45.20;26.10;;;;;;;;;;107557;1251;61361;-83
2024/03/01 10:21:25;;;;;;;42.30;26.00;;;;;;;;;;107357;1251;61362;-83
2024/03/01 10:24:01;;;;;;;57.60;26.40;;;;;;;;;;107351;1251;61372;-82
2024/03/01 10:26:27;;;;;;;39.90;24.90;;;;;;;;;;107547;1251;59859;-83
2024/03/01 10:28:57;;;;;;;39.00;22.40;;;;;;;;;;107515;1251;61980;-83
2024/03/01 10:31:28;;;;;;;41.50;24.50;;;;;;;;;;107286;1256;61236;-83
2024/03/01 10:34:13;;;;;;;38.00;21.70;;;;;;;;;;107380;1251;62493;-82
2024/03/01 10:36:44;;;;;;;35.10;23.50;;;;;;;;;;107387;1253;61211;-83
2024/03/01 10:39:19;;;;;;;43.40;23.50;;;;;;;;;;107299;1251;61244;-83
2024/03/01 10:41:47;;;;;;;40.90;22.50;;;;;;;;;;107306;1253;62650;-83
2024/03/01 10:44:32;;;;;;;37.90;20.50;;;;;;;;;;107316;1255;61340;-81
2024/03/01 10:47:00;;;;;;;35.20;19.10;;;;;;;;;;107437;1251;61362;-81
2024/03/01 10:49:34;;;;;;;33.20;21.50;;;;;;;;;;107393;1251;61190;-83
2024/03/01 10:52:08;;;;;;;32.00;20.70;;;;;;;;;;107145;1256;61317;-83
2024/03/01 10:54:35;;;;;;;32.40;20.50;;;;;;;;;;107200;1252;61334;-84
2024/03/01 10:57:02;;;;;;;36.20;21.70;;;;;;;;;;107385;1252;61217;-83
2024/03/01 10:59:28;;;;;;;39.80;22.70;;;;;;;;;;109448;1251;59706;-82
2024/03/01 11:01:55;;;;;;;36.70;21.60;;;;;;;;;;109488;1253;59034;-84
2024/03/01 11:04:28;;;;;;;29.30;21.20;;;;;;;;;;109325;1251;58963;-82
2024/03/01 11:07:01;;;;;;;30.20;19.00;;;;;;;;;;109465;1251;60803;-82
2024/03/01 11:09:33;;;;;;;34.30;18.70;;;;;;;;;;109479;1251;59300;-82
2024/03/01 11:12:15;;;;;;;31.50;20.10;;;;;;;;;;109455;1251;59124;-82
2024/03/01 11:14:45;;;;;;;26.20;17.00;;;;;;;;;;109483;1251;58979;-82
2024/03/01 11:17:12;;;;;;;33.70;19.20;;;;;;;;;;109420;1251;59063;-83
2024/03/01 11:19:38;;;;;;;27.60;16.50;;;;;;;;;;109460;1251;59203;-84
2024/03/01 11:22:08;;;;;;;28.30;16.80;;;;;;;;;;109475;1251;59104;-84
2024/03/01 11:24:35;;;;;;;29.50;18.00;;;;;;;;;;109484;1251;59547;-83
2024/03/01 11:27:02;;;;;;;30.60;18.10;;;;;;;;;;109471;1253;59114;-82
2024/03/01 11:29:32;;;;;;;32.60;18.60;;;;;;;;;;109237;1251;59109;-83
2024/03/01 11:32:06;;;;;;;29.20;18.20;;;;;;;;;;109453;1251;61942;-84
2024/03/01 11:34:38;;;;;;;29.70;18.00;;;;;;;;;;109514;1251;58874;-84
2024/03/01 11:37:14;;;;;;;24.60;17.00;;;;;;;;;;109497;1251;59704;-83
2024/03/01 11:39:51;;;;;;;31.40;18.00;;;;;;;;;;109444;1251;58903;-83
2024/03/01 11:42:36;;;;;;;36.00;18.40;;;;;;;;;;109460;1253;59159;-83
2024/03/01 11:45:10;;;;;;;26.90;18.10;;;;;;;;;;109437;1251;62072;-82
2024/03/01 11:47:49;;;;;;;27.50;18.80;;;;;;;;;;109386;1251;59264;-82
2024/03/01 11:50:26;;;;;;;27.10;18.70;;;;;;;;;;109478;1251;59200;-83
2024/03/01 11:53:11;;;;;;;26.40;18.00;;;;;;;;;;109460;1251;58889;-82
2024/03/01 11:55:43;;;;;;;26.30;18.60;;;;;;;;;;109404;1251;59119;-83
2024/03/01 11:58:28;;;;;;;33.80;19.30;;;;;;;;;;109478;1253;60801;-83
2024/03/01 12:01:14;;;;;;;33.20;20.80;;;;;;;;;;109477;1251;58958;-83
2024/03/01 12:03:46;;;;;;;30.80;20.30;;;;;;;;;;109494;1255;58931;-84
2024/03/01 12:06:12;;;;;;;32.30;19.20;;;;;;;;;;109253;1251;59341;-84
2024/03/01 12:08:56;;;;;;;31.80;18.90;;;;;;;;;;109450;1251;58783;-83
2024/03/01 12:11:43;;;;;;;30.90;18.60;;;;;;;;;;109470;1251;61933;-84
2024/03/01 12:14:10;;;;;;;35.30;20.80;;;;;;;;;;109419;1251;59075;-84
2024/03/01 12:16:52;;;;;;;27.90;19.80;;;;;;;;;;109456;1251;59263;-83
2024/03/01 12:19:19;;;;;;;37.30;22.70;;;;;;;;;;109465;1251;59130;-83
2024/03/01 12:21:46;;;;;;;39.60;23.60;;;;;;;;;;109487;1251;58843;-83
2024/03/01 12:24:16;;;;;;;32.70;20.60;;;;;;;;;;109453;1252;59456;-83
2024/03/01 12:26:49;;;;;;;42.10;24.20;;;;;;;;;;109370;1253;59449;-82
2024/03/01 12:29:35;;;;;;;54.10;29.70;;;;;;;;;;109278;1254;59193;-84
2024/03/01 12:32:07;;;;;;;35.30;23.30;;;;;;;;;;109506;1255;59118;-84
2024/03/01 12:34:40;;;;;;;38.90;22.30;;;;;;;;;;109370;1251;59094;-82
2024/03/01 12:37:15;;;;;;;26.00;18.50;;;;;;;;;;109485;1253;62138;-84
2024/03/01 12:39:43;;;;;;;32.70;20.60;;;;;;;;;;109513;1251;59060;-83
2024/03/01 12:42:12;;;;;;;30.80;20.10;;;;;;;;;;109500;1251;58904;-83
2024/03/01 12:44:39;;;;;;;34.10;21.30;;;;;;;;;;109523;1251;59165;-83
2024/03/01 12:47:26;;;;;;;42.80;25.90;;;;;;;;;;109462;1253;59072;-83
2024/03/01 12:49:54;;;;;;;36.70;25.80;;;;;;;;;;109425;1251;60957;-84
2024/03/01 12:52:21;;;;;;;;;;;;;;;;;;109446;1251;59016;-83
2024/03/01 12:54:50;;;;;;;44.80;23.60;;;;;;;;;;109455;1255;58977;-83
2024/03/01 12:57:26;;;;;;;41.40;26.20;;;;;;;;;;109107;1251;61340;-83
2024/03/01 13:00:15;;;;;;;37.70;24.30;;;;;;;;;;109213;1252;59011;-84
2024/03/01 13:02:55;;;;;;;35.50;24.10;;;;;;;;;;107474;1252;62482;-83
2024/03/01 13:05:38;;;;;;;40.50;24.40;;;;;;;;;;107398;1256;61011;-83
2024/03/01 13:08:07;;;;;;;42.10;28.70;;;;;;;;;;107473;1255;61267;-83
2024/03/01 13:10:33;;;;;;;46.10;29.50;;;;;;;;;;107560;1253;59474;-83
2024/03/01 13:13:01;;;;;;;58.10;35.50;;;;;;;;;;107477;1254;61239;-83
2024/03/01 13:15:35;;;;;;;62.00;38.70;;;;;;;;;;107411;1257;61142;-83
2024/03/01 13:18:02;;;;;;;62.10;43.10;;;;;;;;;;107317;1251;62172;-83
2024/03/01 13:20:35;;;;;;;69.60;45.50;;;;;;;;;;107632;1251;61295;-83
2024/03/01 13:23:06;;;;;;;108.90;60.70;;;;;;;;;;107407;1251;61245;-82
2024/03/01 13:25:35;;;;;;;111.00;62.10;;;;;;;;;;107604;1254;62316;-81
2024/03/01 13:28:16;;;;;;;95.90;53.70;;;;;;;;;;107459;1251;61949;-82
2024/03/01 13:30:44;;;;;;;87.10;45.70;;;;;;;;;;107551;1254;61250;-82
2024/03/01 13:33:31;;;;;;;84.60;49.30;;;;;;;;;;107483;1254;61279;-81
2024/03/01 13:36:10;;;;;;;91.20;47.60;;;;;;;;;;107530;1252;61356;-83
2024/03/01 13:38:56;;;;;;;89.70;45.70;;;;;;;;;;107555;1253;61241;-83
2024/03/01 13:41:28;;;;;;;69.80;39.30;;;;;;;;;;107514;1255;62487;-81
2024/03/01 13:44:00;;;;;;;69.30;37.40;;;;;;;;;;107386;1256;61244;-83
2024/03/01 13:46:32;;;;;;;54.10;34.00;;;;;;;;;;109433;1253;59634;-82
2024/03/01 13:48:59;;;;;;;52.10;33.40;;;;;;;;;;109391;1252;58973;-83
2024/03/01 13:51:27;;;;;;;55.80;31.80;;;;;;;;;;108223;1251;61263;-83
2024/03/01 13:53:54;;;;;;;44.70;28.90;;;;;;;;;;107461;1253;62380;-82
2024/03/01 13:56:24;;;;;;;42.40;27.00;;;;;;;;;;107479;1251;61231;-80
2024/03/01 13:58:52;;;;;;;48.10;32.10;;;;;;;;;;107554;1255;59406;-82
2024/03/01 14:01:24;;;;;;;46.40;29.70;;;;;;;;;;107385;1252;59347;-83
2024/03/01 14:03:53;;;;;;;46.80;29.20;;;;;;;;;;107275;1259;61250;-82
2024/03/01 14:06:22;;;;;;;49.20;30.00;;;;;;;;;;107407;1253;61850;-83
2024/03/01 14:08:50;;;;;;;44.50;28.70;;;;;;;;;;107792;1254;61345;-83
2024/03/01 14:11:17;;;;;;;49.60;31.10;;;;;;;;;;107574;1255;61385;-81
2024/03/01 14:13:48;;;;;;;51.80;30.40;;;;;;;;;;107615;1255;61115;-82